Time;durP1;ratioP1;P1;durP2;ratioP2;P2;SDS_P1;SDS_P2;PMS_P1;PMS_P2;Temp;Humidity;BMP_temperature;BMP_pressure;BME280_temperature;BME280_humidity;BME280_pressure;Samples;Min_cycle;Max_cycle;Signal;HPM_P1;HPM_P2
2021/08/24 00:00:52;;;;;;;9.05;7.70;;;;;;;15.39;90.71;100596.73;1825613;78;33377;-64
2021/08/24 00:03:19;;;;;;;13.05;7.37;;;;;;;15.37;90.69;100601.73;1793245;80;26287;-64
2021/08/24 00:05:46;;;;;;;12.35;7.40;;;;;;;15.36;90.56;100598.77;1825612;78;25632;-64
2021/08/24 00:08:15;;;;;;;9.75;7.33;;;;;;;15.35;90.60;100599.34;1793227;80;27456;-64
2021/08/24 00:10:49;;;;;;;13.87;8.77;;;;;;;15.35;90.62;100595.83;1825963;78;25716;-65
2021/08/24 00:13:20;;;;;;;8.35;7.15;;;;;;;15.31;90.59;100596.48;1825340;78;25721;-64
2021/08/24 00:15:47;;;;;;;9.55;7.00;;;;;;;15.30;90.54;100604.42;1823358;78;26488;-64
2021/08/24 00:18:15;;;;;;;9.83;7.67;;;;;;;15.29;90.53;100600.11;1787325;80;25823;-64
2021/08/24 00:20:46;;;;;;;9.95;7.47;;;;;;;15.28;90.51;100595.00;1808088;79;27511;-64
2021/08/24 00:23:17;;;;;;;8.88;7.33;;;;;;;15.26;90.56;100587.73;1808172;78;25775;-64
2021/08/24 00:25:43;;;;;;;10.20;6.85;;;;;;;15.24;90.57;100588.05;1787199;80;25903;-64
2021/08/24 00:28:09;;;;;;;13.68;7.92;;;;;;;15.23;90.62;100587.02;1807921;78;25751;-64
2021/08/24 00:30:39;;;;;;;8.93;6.97;;;;;;;15.22;90.59;100590.32;1804639;79;25676;-64
2021/08/24 00:33:08;;;;;;;8.83;7.22;;;;;;;15.21;90.59;100592.02;1807172;79;27531;-64
2021/08/24 00:35:39;;;;;;;8.95;7.20;;;;;;;15.18;90.58;100600.27;1808042;78;26415;-64
2021/08/24 00:38:05;;;;;;;10.85;7.03;;;;;;;15.17;90.59;100600.06;1819620;78;25848;-64
2021/08/24 00:40:32;;;;;;;9.65;7.15;;;;;;;15.16;90.56;100605.84;1807922;78;26414;-64
2021/08/24 00:42:58;;;;;;;10.58;7.50;;;;;;;15.15;90.57;100608.32;1776484;79;26401;-64
2021/08/24 00:45:24;;;;;;;10.72;7.47;;;;;;;15.10;90.57;100606.03;1819667;78;29606;-64
2021/08/24 00:47:52;;;;;;;11.43;7.50;;;;;;;15.10;90.60;100606.58;1807891;78;25998;-64
2021/08/24 00:50:35;;;;;;;9.18;7.53;;;;;;;15.09;90.72;100603.64;1808222;79;25676;-64
2021/08/24 00:53:09;;;;;;;8.63;7.35;;;;;;;15.10;90.72;100609.30;1807649;79;25660;-65
2021/08/24 00:55:38;;;;;;;8.35;7.00;;;;;;;15.09;90.70;100613.17;1808019;79;25720;-64
2021/08/24 00:58:10;;;;;;;12.80;7.90;;;;;;;15.07;90.63;100614.87;1819859;78;28407;-64
2021/08/24 01:00:40;;;;;;;13.62;7.70;;;;;;;15.06;90.67;100613.83;1777006;79;25724;-64
2021/08/24 01:03:11;;;;;;;13.50;7.78;;;;;;;15.04;90.83;100617.45;1806834;79;25984;-64
2021/08/24 01:05:40;;;;;;;12.60;8.15;;;;;;;15.06;91.21;100612.47;1787244;80;25898;-64
2021/08/24 01:08:24;;;;;;;9.90;8.18;;;;;;;15.12;92.60;100613.30;1808367;78;25738;-65
2021/08/24 01:11:20;;;;;;;11.88;7.08;;;;;;;15.17;92.14;100611.50;1807970;79;28224;-64
2021/08/24 01:14:29;;;;;;;11.28;6.87;;;;;;;15.17;91.69;100618.31;1728430;82;25896;-64
2021/08/24 01:17:22;;;;;;;9.55;7.28;;;;;;;15.14;91.23;100610.25;1681077;84;25801;-65
2021/08/24 01:20:25;;;;;;;9.85;7.50;;;;;;;15.11;91.02;100610.34;1648863;85;26196;-65
2021/08/24 01:23:20;;;;;;;13.90;7.25;;;;;;;15.09;90.96;100610.45;1671832;85;25907;-65
2021/08/24 01:25:58;;;;;;;13.00;7.62;;;;;;;15.06;90.95;100615.98;1671417;85;29682;-65
2021/08/24 01:28:41;;;;;;;11.68;7.12;;;;;;;15.04;90.92;100618.82;1671573;85;25809;-64
2021/08/24 01:31:41;;;;;;;7.92;7.12;;;;;;;15.03;90.97;100626.17;1671730;85;25885;-65
2021/08/24 01:34:36;;;;;;;8.75;7.85;;;;;;;15.01;90.92;100620.84;1671557;85;26551;-65
2021/08/24 01:37:24;;;;;;;9.20;7.37;;;;;;;15.00;90.96;100626.05;1671715;85;25443;-65
2021/08/24 01:39:55;;;;;;;8.63;7.03;;;;;;;14.97;90.98;100624.00;1671546;85;27501;-66
2021/08/24 01:42:26;;;;;;;9.18;7.00;;;;;;;14.97;91.04;100621.28;1671650;85;26180;-65
2021/08/24 01:45:07;;;;;;;8.53;7.22;;;;;;;14.96;91.02;100623.75;1671724;85;25721;-65
2021/08/24 01:47:58;;;;;;;10.95;7.80;;;;;;;14.95;91.02;100621.61;1671435;85;25971;-65
2021/08/24 01:50:35;;;;;;;12.90;7.60;;;;;;;14.94;90.97;100626.81;1681496;83;26395;-64
2021/08/24 01:53:19;;;;;;;10.55;7.50;;;;;;;14.92;90.97;100616.81;1750137;81;28128;-65
2021/08/24 01:55:50;;;;;;;11.55;7.72;;;;;;;14.89;91.01;100616.11;1768262;81;25858;-65
2021/08/24 01:58:30;;;;;;;8.98;6.92;;;;;;;14.89;91.11;100616.89;1767513;80;25707;-65
2021/08/24 02:00:58;;;;;;;12.98;8.25;;;;;;;14.89;91.06;100616.11;1748618;81;25692;-65
2021/08/24 02:03:35;;;;;;;9.38;7.28;;;;;;;14.88;91.09;100615.31;1768360;80;26291;-65
2021/08/24 02:06:13;;;;;;;10.35;7.75;;;;;;;14.87;91.05;100612.92;1768622;80;27384;-65
2021/08/24 02:08:44;;;;;;;15.63;7.92;;;;;;;14.85;90.93;100611.89;1767818;80;25921;-65
2021/08/24 02:11:11;;;;;;;9.50;8.03;;;;;;;14.84;90.97;100619.81;1768444;81;25647;-65
2021/08/24 02:13:42;;;;;;;9.45;7.58;;;;;;;14.84;91.14;100621.74;1768468;80;26478;-65
2021/08/24 02:16:14;;;;;;;13.32;7.50;;;;;;;14.83;91.15;100615.51;1770984;78;25766;-65
2021/08/24 02:18:44;;;;;;;9.65;8.58;;;;;;;14.83;91.23;100614.15;1825465;78;28166;-65
2021/08/24 02:21:28;;;;;;;9.88;7.65;;;;;;;14.85;91.29;100620.05;1825478;78;25710;-65
2021/08/24 02:23:58;;;;;;;8.03;7.22;;;;;;;14.85;91.27;100614.61;1777153;80;25660;-65
2021/08/24 02:26:27;;;;;;;11.70;8.15;;;;;;;14.85;91.27;100613.25;1825532;78;25702;-66
2021/08/24 02:28:57;;;;;;;8.23;7.37;;;;;;;14.84;91.22;100606.20;1825380;77;25679;-66
2021/08/24 02:31:32;;;;;;;12.28;7.72;;;;;;;14.84;91.21;100607.55;1825185;78;28007;-66
2021/08/24 02:34:27;;;;;;;12.90;8.08;;;;;;;14.83;91.16;100603.25;1825300;78;25664;-65
2021/08/24 02:37:28;;;;;;;8.15;6.83;;;;;;;14.82;91.17;100599.50;1804813;79;25743;-67
2021/08/24 02:40:15;;;;;;;11.80;7.47;;;;;;;14.81;91.22;100606.06;1795238;78;25811;-67
2021/08/24 02:43:06;;;;;;;9.75;7.62;;;;;;;14.80;91.14;100608.56;1825521;78;25782;-66
2021/08/24 02:45:37;;;;;;;9.03;7.42;;;;;;;14.78;91.26;100604.81;1792943;80;26656;-66
2021/08/24 02:48:08;;;;;;;9.55;7.70;;;;;;;14.77;91.30;100608.64;1825451;78;25965;-66
2021/08/24 02:50:36;;;;;;;9.83;7.22;;;;;;;14.77;91.33;100603.77;1792948;80;25967;-66
2021/08/24 02:53:03;;;;;;;10.93;7.85;;;;;;;14.76;91.21;100607.03;1825538;77;25719;-66
2021/08/24 02:55:30;;;;;;;8.78;7.83;;;;;;;14.75;91.31;100601.38;1792840;80;25997;-66
2021/08/24 02:57:58;;;;;;;12.00;7.47;;;;;;;14.75;91.40;100594.00;1825616;78;27467;-66
2021/08/24 03:00:24;;;;;;;9.98;7.37;;;;;;;14.75;91.31;100595.36;1825307;78;25904;-66
2021/08/24 03:02:50;;;;;;;14.13;7.30;;;;;;;14.75;91.29;100589.13;1804619;79;25850;-66
2021/08/24 03:05:17;;;;;;;10.45;6.97;;;;;;;14.74;91.27;100592.96;1795603;78;26642;-66
2021/08/24 03:07:44;;;;;;;10.58;6.80;;;;;;;14.72;91.21;100593.29;1825559;78;25735;-66
2021/08/24 03:10:14;;;;;;;10.20;6.97;;;;;;;14.73;91.22;100590.02;1792875;80;27338;-66
2021/08/24 03:12:49;;;;;;;9.85;7.78;;;;;;;14.73;91.29;100596.26;1804785;79;25780;-65
2021/08/24 03:15:42;;;;;;;12.85;7.87;;;;;;;14.72;91.36;100601.45;1825629;78;25727;-66
2021/08/24 03:18:14;;;;;;;10.00;7.10;;;;;;;14.71;91.29;100602.60;1825361;78;25698;-66
2021/08/24 03:20:45;;;;;;;9.35;6.72;;;;;;;14.69;91.21;100598.59;1825708;78;25686;-66
2021/08/24 03:23:15;;;;;;;11.43;6.80;;;;;;;14.68;91.29;100600.53;1825771;78;28685;-66
2021/08/24 03:25:46;;;;;;;9.98;6.87;;;;;;;14.69;91.41;100606.22;1793060;80;25771;-66
2021/08/24 03:28:19;;;;;;;11.20;7.97;;;;;;;14.69;91.31;100612.21;1825800;78;25734;-65
2021/08/24 03:30:46;;;;;;;12.00;7.75;;;;;;;14.69;91.41;100614.94;1825468;78;25723;-66
2021/08/24 03:33:14;;;;;;;11.18;7.28;;;;;;;14.68;91.46;100605.98;1804952;79;25803;-66
2021/08/24 03:35:41;;;;;;;12.58;7.45;;;;;;;14.69;91.42;100608.12;1795625;78;28255;-66
2021/08/24 03:38:08;;;;;;;11.45;7.25;;;;;;;14.68;91.43;100606.55;1825381;78;26326;-66
2021/08/24 03:40:35;;;;;;;9.68;7.25;;;;;;;14.68;91.43;100612.00;1793095;80;25695;-65
2021/08/24 03:43:03;;;;;;;8.45;7.55;;;;;;;14.69;91.43;100610.84;1825654;78;25694;-65
2021/08/24 03:45:30;;;;;;;9.38;7.67;;;;;;;14.69;91.44;100609.48;1792916;80;25732;-67
2021/08/24 03:47:56;;;;;;;8.48;7.37;;;;;;;14.68;91.43;100617.44;1795321;78;28184;-65
2021/08/24 03:50:23;;;;;;;8.43;7.33;;;;;;;14.67;91.34;100623.42;1793054;80;26016;-66
2021/08/24 03:52:50;;;;;;;14.93;8.40;;;;;;;14.68;91.38;100625.61;1825604;78;25776;-65
2021/08/24 03:55:18;;;;;;;13.55;8.28;;;;;;;14.68;91.47;100612.00;1825551;78;26132;-65
2021/08/24 03:57:44;;;;;;;17.27;8.65;;;;;;;14.68;91.43;100623.67;1825646;78;25748;-65
2021/08/24 04:00:12;;;;;;;9.58;8.58;;;;;;;14.67;91.48;100626.15;1793046;80;27443;-66
2021/08/24 04:02:40;;;;;;;10.78;8.73;;;;;;;14.68;91.43;100631.05;1825519;78;25866;-65
2021/08/24 04:05:08;;;;;;;13.48;9.18;;;;;;;14.68;91.51;100631.84;1825690;78;25706;-66
2021/08/24 04:07:35;;;;;;;10.95;9.23;;;;;;;14.69;91.52;100635.35;1795628;78;25858;-66
2021/08/24 04:10:01;;;;;;;10.00;8.68;;;;;;;14.69;91.56;100635.35;1791279;78;25814;-66
2021/08/24 04:12:27;;;;;;;13.00;10.25;;;;;;;14.70;91.62;100636.95;1773706;79;27681;-66
2021/08/24 04:14:53;;;;;;;12.03;9.85;;;;;;;14.70;91.75;100643.20;1792933;80;25724;-66
2021/08/24 04:17:20;;;;;;;14.80;9.70;;;;;;;14.72;91.76;100650.47;1821006;78;26359;-66
2021/08/24 04:19:46;;;;;;;13.58;9.98;;;;;;;14.72;91.73;100646.38;1807951;79;25900;-66
2021/08/24 04:22:21;;;;;;;12.55;10.15;;;;;;;14.74;91.81;100648.78;1819533;78;25751;-66
2021/08/24 04:24:47;;;;;;;10.93;9.38;;;;;;;14.74;91.81;100639.25;1808084;78;27523;-66
2021/08/24 04:27:13;;;;;;;12.58;10.08;;;;;;;14.75;91.81;100643.58;1807953;79;25827;-66
2021/08/24 04:29:40;;;;;;;13.30;10.23;;;;;;;14.76;91.82;100645.16;1804904;79;25745;-66
2021/08/24 04:32:07;;;;;;;11.57;9.78;;;;;;;14.77;91.88;100643.25;1804081;79;26099;-66
2021/08/24 04:34:34;;;;;;;11.80;10.03;;;;;;;14.79;91.87;100645.08;1819599;78;25714;-66
2021/08/24 04:37:00;;;;;;;15.93;10.05;;;;;;;14.78;91.75;100648.38;1807982;79;27473;-66
2021/08/24 04:39:27;;;;;;;13.48;8.83;;;;;;;14.77;91.80;100641.32;1807660;79;25829;-66
2021/08/24 04:41:53;;;;;;;11.03;8.80;;;;;;;14.77;91.69;100642.69;1807977;79;25619;-66
2021/08/24 04:44:19;;;;;;;10.43;8.43;;;;;;;14.76;91.64;100642.44;1787014;80;25751;-66
2021/08/24 04:46:45;;;;;;;12.47;9.43;;;;;;;14.75;91.52;100638.13;1807727;78;25751;-66
2021/08/24 04:49:12;;;;;;;16.30;8.68;;;;;;;14.74;91.50;100639.25;1787129;80;28266;-66
2021/08/24 04:51:38;;;;;;;11.38;8.13;;;;;;;14.70;91.28;100638.32;1807814;79;25873;-66
2021/08/24 04:54:04;;;;;;;9.95;7.62;;;;;;;14.70;91.36;100636.95;1787051;80;25662;-66
2021/08/24 04:56:30;;;;;;;10.85;7.30;;;;;;;14.70;91.46;100632.88;1807899;78;25688;-66
2021/08/24 04:58:57;;;;;;;12.65;7.72;;;;;;;14.69;91.37;100624.46;1819498;78;25700;-66
2021/08/24 05:01:23;;;;;;;12.23;7.22;;;;;;;14.67;91.24;100627.51;1807770;78;27499;-66
2021/08/24 05:03:49;;;;;;;10.32;7.50;;;;;;;14.66;91.31;100628.66;1807899;78;25656;-66
2021/08/24 05:06:15;;;;;;;11.28;5.92;;;;;;;14.65;90.93;100627.05;1807982;79;26414;-66
2021/08/24 05:08:42;;;;;;;8.18;5.85;;;;;;;14.62;90.80;100629.06;1819327;78;25774;-66
2021/08/24 05:11:08;;;;;;;10.38;5.85;;;;;;;14.60;90.95;100624.51;1808151;78;25743;-66
2021/08/24 05:13:34;;;;;;;8.40;5.62;;;;;;;14.60;90.83;100624.51;1787129;80;27010;-66
2021/08/24 05:16:09;;;;;;;7.70;5.42;;;;;;;14.55;90.57;100621.94;1807697;78;25810;-66
2021/08/24 05:18:36;;;;;;;8.53;5.45;;;;;;;14.53;90.52;100626.34;1819320;78;25712;-66
2021/08/24 05:21:06;;;;;;;9.45;5.03;;;;;;;14.51;90.47;100627.25;1807910;79;25696;-66
2021/08/24 05:23:33;;;;;;;9.85;5.85;;;;;;;14.49;90.42;100632.77;1819297;78;25641;-66
2021/08/24 05:26:07;;;;;;;8.78;5.78;;;;;;;14.49;90.58;100628.69;1801737;79;28387;-66
2021/08/24 05:28:33;;;;;;;10.30;7.37;;;;;;;14.47;90.53;100628.22;1787064;80;25688;-66
2021/08/24 05:31:00;;;;;;;11.53;6.30;;;;;;;14.46;90.41;100625.28;1801549;79;25742;-66
2021/08/24 05:33:26;;;;;;;11.22;4.80;;;;;;;14.43;90.27;100630.80;1819388;78;25723;-66
2021/08/24 05:35:52;;;;;;;6.55;5.25;;;;;;;14.43;90.38;100625.92;1801702;79;25707;-66
2021/08/24 05:38:18;;;;;;;8.13;5.08;;;;;;;14.42;90.55;100636.02;1819311;78;28255;-65
2021/08/24 05:40:44;;;;;;;9.93;5.37;;;;;;;14.44;90.59;100641.11;1786948;80;26022;-63
2021/08/24 05:43:11;;;;;;;10.23;4.90;;;;;;;14.44;90.67;100643.30;1807900;79;26389;-63
2021/08/24 05:45:37;;;;;;;7.87;5.33;;;;;;;14.42;90.37;100637.38;1819153;78;25695;-63
2021/08/24 05:48:04;;;;;;;6.22;4.55;;;;;;;14.42;90.30;100645.55;1808014;78;25700;-63
2021/08/24 05:50:31;;;;;;;7.78;4.37;;;;;;;14.42;90.49;100646.91;1807991;79;27459;-63
2021/08/24 05:52:57;;;;;;;6.45;4.37;;;;;;;14.40;90.15;100647.77;1807749;79;25684;-64
2021/08/24 05:55:24;;;;;;;5.78;4.15;;;;;;;14.41;90.22;100655.39;1807869;78;25790;-63
2021/08/24 05:57:52;;;;;;;7.75;4.37;;;;;;;14.39;90.15;100654.36;1807837;79;25639;-63
2021/08/24 06:00:19;;;;;;;6.17;3.77;;;;;;;14.37;89.95;100656.61;1819090;78;25782;-63
2021/08/24 06:02:46;;;;;;;7.55;3.98;;;;;;;14.35;89.97;100661.56;1776167;79;28355;-63
2021/08/24 06:05:12;;;;;;;6.75;4.05;;;;;;;14.34;89.76;100664.06;1807745;79;25762;-63
2021/08/24 06:07:39;;;;;;;5.72;4.25;;;;;;;14.31;89.77;100672.30;1807666;79;26074;-63
2021/08/24 06:10:08;;;;;;;6.62;3.83;;;;;;;14.32;90.00;100675.27;1819626;77;26523;-63
2021/08/24 06:12:34;;;;;;;9.33;4.60;;;;;;;14.30;89.87;100677.52;1808159;79;25869;-63
2021/08/24 06:15:01;;;;;;;8.83;4.10;;;;;;;14.30;89.87;100685.68;1787272;78;27573;-63
2021/08/24 06:17:27;;;;;;;10.38;4.25;;;;;;;14.31;90.06;100692.70;1801461;79;25838;-63
2021/08/24 06:19:54;;;;;;;5.83;3.90;;;;;;;14.31;89.97;100694.06;1825453;78;25655;-63
2021/08/24 06:22:20;;;;;;;5.80;4.58;;;;;;;14.32;89.94;100701.66;1792702;80;25890;-63
2021/08/24 06:24:47;;;;;;;9.90;4.47;;;;;;;14.31;89.96;100698.72;1825383;78;25793;-63
2021/08/24 06:27:13;;;;;;;11.53;4.37;;;;;;;14.31;89.77;100698.72;1825433;78;27518;-63
2021/08/24 06:29:40;;;;;;;9.40;3.87;;;;;;;14.31;89.65;100698.72;1824301;77;25671;-63
2021/08/24 06:32:11;;;;;;;8.33;4.00;;;;;;;14.28;89.49;100700.15;1788799;80;26488;-62
2021/08/24 06:34:37;;;;;;;6.67;4.15;;;;;;;14.26;89.46;100699.67;1807565;78;26329;-63
2021/08/24 06:37:04;;;;;;;9.65;4.17;;;;;;;14.25;89.39;100702.72;1805871;77;26063;-63
2021/08/24 06:39:31;;;;;;;8.00;3.67;;;;;;;14.22;89.25;100710.16;1802609;79;27465;-63
2021/08/24 06:41:57;;;;;;;10.08;4.00;;;;;;;14.21;89.60;100708.02;1795681;78;25796;-63
2021/08/24 06:44:23;;;;;;;9.83;3.75;;;;;;;14.23;89.51;100712.56;1792262;80;25715;-63
2021/08/24 06:46:50;;;;;;;6.28;4.00;;;;;;;14.23;89.57;100716.64;1792599;78;27622;-62
2021/08/24 06:49:16;;;;;;;9.75;4.12;;;;;;;14.24;89.62;100714.17;1752933;81;25729;-63
2021/08/24 06:51:43;;;;;;;9.13;3.83;;;;;;;14.25;89.90;100714.42;1792621;80;28241;-63
2021/08/24 06:54:09;;;;;;;7.53;3.60;;;;;;;14.25;89.67;100711.70;1792700;79;25847;-63
2021/08/24 06:56:35;;;;;;;7.05;4.40;;;;;;;14.26;89.51;100717.94;1753200;81;25840;-63
2021/08/24 06:59:03;;;;;;;8.08;4.85;;;;;;;14.28;89.63;100715.69;1792747;80;25894;-63
2021/08/24 07:01:35;;;;;;;6.83;3.83;;;;;;;14.27;89.67;100716.80;1792885;80;25718;-62
2021/08/24 07:04:00;;;;;;;6.85;3.67;;;;;;;14.27;89.10;100723.05;1730519;82;27961;-62
2021/08/24 07:06:26;;;;;;;8.78;5.40;;;;;;;14.28;89.28;100722.48;1719025;83;25867;-62
2021/08/24 07:08:56;;;;;;;5.67;3.42;;;;;;;14.29;89.29;100728.17;1719323;82;25744;-63
2021/08/24 07:11:20;;;;;;;5.92;3.25;;;;;;;14.26;88.67;100722.80;1719149;83;25822;-62
2021/08/24 07:13:50;;;;;;;9.25;3.60;;;;;;;14.26;88.97;100721.45;1719214;83;25842;-62
2021/08/24 07:16:15;;;;;;;8.25;3.67;;;;;;;14.28;89.09;100729.28;1719129;83;27652;-62
2021/08/24 07:18:41;;;;;;;5.25;3.35;;;;;;;14.26;88.95;100728.25;1722594;82;25716;-62
2021/08/24 07:21:07;;;;;;;6.42;3.33;;;;;;;14.28;89.10;100723.84;1727549;82;25685;-63
2021/08/24 07:23:34;;;;;;;7.08;3.47;;;;;;;14.28;89.03;100722.48;1727549;82;26469;-63
2021/08/24 07:26:00;;;;;;;6.70;3.10;;;;;;;14.29;88.98;100730.90;1727812;82;25812;-62
2021/08/24 07:28:26;;;;;;;6.33;3.70;;;;;;;14.30;88.99;100732.48;1752963;80;28435;-62
2021/08/24 07:30:53;;;;;;;8.80;3.22;;;;;;;14.31;88.93;100732.73;1732823;81;25826;-63
2021/08/24 07:33:19;;;;;;;6.42;3.52;;;;;;;14.31;88.69;100731.37;1790430;80;25822;-62
2021/08/24 07:35:47;;;;;;;6.12;3.45;;;;;;;14.32;88.77;100737.03;1790145;80;25753;-63
2021/08/24 07:38:16;;;;;;;4.75;3.27;;;;;;;14.33;88.79;100733.98;1788125;80;25725;-62
2021/08/24 07:40:43;;;;;;;7.58;2.65;;;;;;;14.36;88.75;100738.00;1790423;80;27382;-63
2021/08/24 07:43:10;;;;;;;9.30;3.40;;;;;;;14.35;88.29;100735.03;1790089;80;25699;-62
2021/08/24 07:45:37;;;;;;;6.55;3.33;;;;;;;14.36;88.48;100743.44;1805563;78;25738;-63
2021/08/24 07:48:05;;;;;;;8.75;3.15;;;;;;;14.38;88.48;100746.63;1802233;78;25723;-63
2021/08/24 07:50:32;;;;;;;4.00;2.87;;;;;;;14.39;88.40;100748.24;1776867;80;26470;-63
2021/08/24 07:52:58;;;;;;;4.95;2.72;;;;;;;14.40;88.35;100752.55;1807645;78;27135;-63
2021/08/24 07:55:27;;;;;;;7.60;3.60;;;;;;;14.43;88.49;100749.75;1788968;80;26158;-63
2021/08/24 07:57:53;;;;;;;5.85;3.55;;;;;;;14.44;88.30;100756.78;1781270;80;25661;-64
2021/08/24 08:00:20;;;;;;;5.58;3.27;;;;;;;14.46;88.28;100761.36;1808237;78;26066;-64
2021/08/24 08:02:46;;;;;;;4.97;2.90;;;;;;;14.48;88.29;100757.75;1806309;78;26364;-63
2021/08/24 08:05:14;;;;;;;4.05;2.60;;;;;;;14.48;87.99;100760.47;1793593;79;28352;-64
2021/08/24 08:07:40;;;;;;;5.92;3.22;;;;;;;14.49;88.13;100754.70;1794141;79;25675;-64
2021/08/24 08:10:09;;;;;;;8.08;2.60;;;;;;;14.51;88.02;100752.45;1812814;78;26314;-63
2021/08/24 08:12:39;;;;;;;5.60;2.62;;;;;;;14.52;87.91;100754.60;1808215;78;25778;-63
2021/08/24 08:15:10;;;;;;;3.60;2.22;;;;;;;14.54;87.87;100753.70;1785842;80;25787;-63
2021/08/24 08:17:38;;;;;;;4.22;2.40;;;;;;;14.53;87.67;100751.56;1776638;80;27449;-63
2021/08/24 08:20:06;;;;;;;4.80;2.15;;;;;;;14.56;87.69;100761.80;1801241;78;25826;-63
2021/08/24 08:22:34;;;;;;;10.32;2.40;;;;;;;14.57;87.63;100759.88;1785995;80;25731;-63
2021/08/24 08:25:01;;;;;;;6.58;2.10;;;;;;;14.60;87.33;100762.55;1768657;79;25703;-63
2021/08/24 08:27:27;;;;;;;4.92;2.45;;;;;;;14.59;87.09;100764.45;1783669;80;26509;-63
2021/08/24 08:29:55;;;;;;;3.55;2.42;;;;;;;14.59;86.80;100761.73;1795466;78;28088;-63
2021/08/24 08:32:27;;;;;;;6.08;2.45;;;;;;;14.60;87.02;100760.62;1775674;79;25854;-63
2021/08/24 08:34:55;;;;;;;3.98;2.50;;;;;;;14.63;87.06;100764.62;1818303;78;26053;-63
2021/08/24 08:37:22;;;;;;;7.67;2.45;;;;;;;14.66;86.96;100770.22;1800795;79;26082;-63
2021/08/24 08:39:49;;;;;;;5.60;3.10;;;;;;;14.68;86.85;100767.17;1818348;78;25743;-64
2021/08/24 08:42:39;;;;;;;4.50;2.40;;;;;;;14.71;86.90;100769.23;1807359;79;27678;-63
2021/08/24 08:45:11;;;;;;;6.92;2.42;;;;;;;14.77;86.79;100775.31;1806982;79;25798;-63
2021/08/24 08:47:57;;;;;;;2.27;1.60;;;;;;;14.80;86.43;100780.12;1786607;80;26326;-63
2021/08/24 08:50:47;;;;;;;6.30;2.00;;;;;;;14.83;86.41;100784.34;1800623;79;25671;-63
2021/08/24 08:53:44;;;;;;;4.47;2.35;;;;;;;14.87;86.51;100785.86;1818983;78;25369;-63
2021/08/24 08:56:52;;;;;;;5.12;2.50;;;;;;;14.92;86.44;100787.83;1801069;78;27466;-63
2021/08/24 08:59:26;;;;;;;4.37;2.05;;;;;;;14.98;86.56;100783.56;1799391;79;25679;-64
2021/08/24 09:02:01;;;;;;;8.68;2.02;;;;;;;15.07;86.63;100780.25;1799463;79;25770;-64
2021/08/24 09:04:38;;;;;;;3.22;1.80;;;;;;;15.10;86.12;100785.02;1798483;79;26112;-64
2021/08/24 09:07:19;;;;;;;6.95;2.15;;;;;;;15.17;86.13;100785.34;1792474;79;25770;-64
2021/08/24 09:09:47;;;;;;;5.15;2.02;;;;;;;15.22;86.06;100783.78;1785075;79;28139;-64
2021/08/24 09:12:17;;;;;;;5.80;2.25;;;;;;;15.26;85.89;100785.29;1787568;79;25823;-64
2021/08/24 09:14:48;;;;;;;;;;;;;;;15.31;85.56;100787.25;1796353;79;25759;-64
2021/08/24 09:17:30;;;;;;;4.87;1.92;;;;;;;15.34;85.06;100784.45;1807527;78;26367;-64
2021/08/24 09:20:31;;;;;;;2.62;1.65;;;;;;;15.36;84.78;100780.00;1818562;78;26097;-62
2021/08/24 09:23:02;;;;;;;11.50;2.20;;;;;;;15.38;84.63;100785.95;1767789;80;28565;-61
2021/08/24 09:25:39;;;;;;;7.03;1.90;;;;;;;15.39;84.06;100782.90;1783553;80;26391;-63
2021/08/24 09:28:18;;;;;;;4.55;1.70;;;;;;;15.39;83.31;100774.72;1783068;80;25746;-64
2021/08/24 09:30:45;;;;;;;3.05;1.52;;;;;;;15.37;82.50;100778.89;1783281;80;25835;-63
2021/08/24 09:33:12;;;;;;;3.55;1.37;;;;;;;15.35;82.20;100779.22;1750116;80;25646;-65
2021/08/24 09:35:45;;;;;;;3.75;1.67;;;;;;;15.36;82.23;100782.19;1783426;79;27519;-63
2021/08/24 09:38:24;;;;;;;3.35;1.72;;;;;;;15.38;82.20;100781.86;1783804;80;26283;-64
2021/08/24 09:40:59;;;;;;;;;;;;;;;15.39;82.22;100780.72;1786410;80;25362;-63
2021/08/24 09:43:41;;;;;;;3.02;1.50;;;;;;;15.40;81.75;100779.59;1783726;80;26448;-62
2021/08/24 09:46:23;;;;;;;4.25;2.15;;;;;;;15.40;81.67;100786.41;1783546;80;25780;-64
2021/08/24 09:49:10;;;;;;;3.45;1.35;;;;;;;15.39;81.14;100778.81;1783762;80;27515;-63
2021/08/24 09:52:02;;;;;;;2.65;1.70;;;;;;;15.39;81.02;100782.90;1780062;80;25756;-63
2021/08/24 09:54:40;;;;;;;2.92;2.15;;;;;;;15.38;80.58;100781.86;1783639;80;26409;-63
2021/08/24 09:57:26;;;;;;;2.17;1.50;;;;;;;15.36;80.21;100782.19;1783305;80;26376;-64
2021/08/24 10:00:00;;;;;;;3.05;1.40;;;;;;;15.36;80.09;100784.09;1783943;80;25764;-63
2021/08/24 10:02:40;;;;;;;1.82;1.15;;;;;;;15.35;79.63;100781.16;1783481;79;28457;-64
2021/08/24 10:05:18;;;;;;;7.67;2.22;;;;;;;15.33;79.21;100782.05;1783510;80;26528;-63
2021/08/24 10:07:48;;;;;;;4.17;1.75;;;;;;;15.33;79.22;100782.05;1778823;80;25864;-63
2021/08/24 10:10:32;;;;;;;3.83;1.70;;;;;;;15.35;79.24;100786.60;1783597;80;25712;-62
2021/08/24 10:13:13;;;;;;;1.52;1.27;;;;;;;15.34;79.13;100787.17;1784014;80;25704;-63
2021/08/24 10:15:40;;;;;;;5.60;1.55;;;;;;;15.37;78.95;100791.16;1737601;82;28734;-63
2021/08/24 10:18:14;;;;;;;3.87;1.50;;;;;;;15.38;78.80;100794.13;1739197;82;25852;-64
2021/08/24 10:20:54;;;;;;;2.92;1.50;;;;;;;15.38;78.77;100787.31;1735841;82;25728;-64
2021/08/24 10:23:24;;;;;;;2.95;1.42;;;;;;;15.40;78.62;100785.84;1730659;82;25826;-64
2021/08/24 10:25:58;;;;;;;3.00;1.65;;;;;;;15.44;78.97;100789.52;1753373;81;26565;-64
2021/08/24 10:28:39;;;;;;;2.02;1.50;;;;;;;15.50;79.03;100796.37;1784490;80;27502;-64
2021/08/24 10:31:31;;;;;;;4.62;1.90;;;;;;;15.55;78.89;100789.14;1754359;81;25815;-64
2021/08/24 10:34:11;;;;;;;3.75;1.70;;;;;;;15.58;78.55;100787.91;1784329;80;25826;-67
2021/08/24 10:36:42;;;;;;;3.20;1.72;;;;;;;15.65;78.68;100794.20;1753900;81;25836;-67
2021/08/24 10:39:32;;;;;;;3.95;1.55;;;;;;;15.68;78.30;100792.16;1784659;80;26413;-67
2021/08/24 10:42:09;;;;;;;4.45;1.67;;;;;;;15.72;78.01;100790.95;1754157;81;28226;-67
2021/08/24 10:44:55;;;;;;;5.10;1.77;;;;;;;15.76;78.22;100794.64;1767022;78;25743;-67
2021/08/24 10:47:30;;;;;;;4.28;1.75;;;;;;;15.79;77.91;100792.04;1738395;81;26628;-66
2021/08/24 10:50:00;;;;;;;4.40;1.75;;;;;;;15.85;77.98;100789.36;1784365;80;25771;-68
2021/08/24 10:52:53;;;;;;;2.62;1.80;;;;;;;15.91;77.90;100793.25;1770893;78;25832;-67
2021/08/24 10:55:26;;;;;;;7.97;2.00;;;;;;;16.00;77.80;100805.67;1778002;78;27499;-67
2021/08/24 10:58:16;;;;;;;3.95;1.98;;;;;;;16.09;77.72;100800.17;1776861;80;25759;-66
2021/08/24 11:01:00;;;;;;;4.10;1.85;;;;;;;16.14;77.12;100795.88;1791095;79;26444;-62
2021/08/24 11:04:06;;;;;;;7.37;2.10;;;;;;;16.23;77.33;100799.31;1810195;79;27623;-65
2021/08/24 11:06:57;;;;;;;5.53;1.80;;;;;;;16.33;77.04;100793.19;1816157;78;25843;-65
2021/08/24 11:09:44;;;;;;;4.78;2.25;;;;;;;16.40;76.46;100805.18;1812510;78;29607;-65
2021/08/24 11:12:21;;;;;;;3.47;2.00;;;;;;;16.48;75.73;100801.33;1811041;78;26249;-64
2021/08/24 11:15:22;;;;;;;4.05;1.50;;;;;;;16.54;75.63;100800.78;1792621;79;26058;-63
2021/08/24 11:18:32;;;;;;;3.58;1.60;;;;;;;16.65;75.87;100790.22;1791265;79;26327;-62
2021/08/24 11:21:48;;;;;;;4.00;1.75;;;;;;;16.78;75.76;100805.50;1736493;82;25726;-61
2021/08/24 11:24:37;;;;;;;3.92;1.90;;;;;;;16.92;75.34;100804.42;1706528;83;27438;-62
2021/08/24 11:27:21;;;;;;;3.92;2.10;;;;;;;16.98;74.10;100804.45;1719294;83;25817;-62
2021/08/24 11:30:01;;;;;;;3.58;1.90;;;;;;;17.01;73.53;100809.23;1719538;83;25770;-62
2021/08/24 11:32:39;;;;;;;6.42;1.95;;;;;;;17.06;73.92;100817.76;1737571;82;26585;-61
2021/08/24 11:35:23;;;;;;;5.47;1.85;;;;;;;17.14;73.85;100827.22;1718836;83;26475;-62
2021/08/24 11:38:06;;;;;;;4.12;1.90;;;;;;;17.23;73.90;100827.13;1737934;82;27273;-62
2021/08/24 11:40:59;;;;;;;5.95;1.87;;;;;;;17.30;73.65;100825.20;1719331;83;25991;-63
2021/08/24 11:43:45;;;;;;;3.20;1.60;;;;;;;17.36;72.93;100834.75;1737682;82;26425;-63
2021/08/24 11:46:26;;;;;;;5.85;1.92;;;;;;;17.42;72.90;100833.40;1718324;83;25803;-62
2021/08/24 11:48:58;;;;;;;4.87;1.80;;;;;;;17.46;72.84;100841.13;1737811;82;25883;-62
2021/08/24 11:51:32;;;;;;;4.03;1.98;;;;;;;17.49;72.15;100838.30;1716952;83;27439;-62